createdAt,value
2022-10-01T00:04:10.482Z,1.63
2022-10-01T00:09:14.907Z,1.20
2022-10-01T00:14:18.482Z,2.75
2022-10-01T00:19:21.834Z,1.45
2022-10-01T00:24:26.246Z,1.35
2022-10-01T00:29:29.266Z,1.30
2022-10-01T00:34:32.258Z,1.48
2022-10-01T00:39:37.004Z,1.73
2022-10-01T00:44:40.322Z,0.95
2022-10-01T00:49:46.171Z,2.28
2022-10-01T00:54:53.940Z,1.00
2022-10-01T00:59:59.099Z,1.40
2022-10-01T01:05:02.695Z,1.15
2022-10-01T01:10:09.044Z,1.33
2022-10-01T01:15:18.464Z,2.15
2022-10-01T01:20:44.019Z,1.15
2022-10-01T01:25:56.016Z,0.80
2022-10-01T01:31:05.702Z,0.80
2022-10-01T01:36:12.144Z,1.15
2022-10-01T01:41:17.055Z,0.90
2022-10-01T01:46:22.022Z,1.13
2022-10-01T01:51:32.937Z,1.25
2022-10-01T01:56:36.320Z,1.15
2022-10-01T02:01:43.173Z,1.30
2022-10-01T02:06:58.479Z,1.00
2022-10-01T02:12:10.895Z,1.35
2022-10-01T02:17:22.631Z,1.10
2022-10-01T02:22:33.276Z,1.30
2022-10-01T02:27:41.740Z,1.25
2022-10-01T02:32:48.557Z,1.33
2022-10-01T02:37:54.096Z,1.58
2022-10-01T02:43:01.180Z,1.92
2022-10-01T02:48:09.313Z,1.52
2022-10-01T02:53:19.074Z,1.02
2022-10-01T02:58:22.828Z,1.42
2022-10-01T03:03:27.398Z,1.13
2022-10-01T03:08:31.529Z,1.25
2022-10-01T03:13:35.111Z,1.40
2022-10-01T03:18:39.487Z,1.00
2022-10-01T03:23:42.443Z,1.10
2022-10-01T03:28:45.435Z,0.80
2022-10-01T03:33:49.780Z,2.72
2022-10-01T03:38:52.776Z,1.75
2022-10-01T03:44:00.253Z,1.20
2022-10-01T03:49:05.459Z,1.20
2022-10-01T03:54:09.407Z,1.17
2022-10-01T03:59:12.849Z,1.10
2022-10-01T04:04:17.168Z,1.10
2022-10-01T04:09:20.129Z,1.33
2022-10-01T04:14:23.094Z,2.38
2022-10-01T04:19:27.410Z,1.35
2022-10-01T04:24:30.393Z,1.33
2022-10-01T04:29:38.031Z,2.83
2022-10-01T04:34:56.145Z,1.25
2022-10-01T04:39:59.118Z,1.05
2022-10-01T04:45:02.081Z,0.85
2022-10-01T04:50:07.342Z,1.30
2022-10-01T04:55:11.260Z,0.98
2022-10-01T05:00:17.099Z,1.50
2022-10-01T05:05:22.743Z,1.15
2022-10-01T05:10:26.305Z,1.02
2022-10-01T05:15:30.126Z,1.35
2022-10-01T05:20:34.609Z,1.20
2022-10-01T05:25:37.584Z,1.20
2022-10-01T05:30:40.700Z,2.05
2022-10-01T05:35:45.456Z,1.13
2022-10-01T05:40:48.515Z,1.25
2022-10-01T05:45:52.089Z,1.33
2022-10-01T05:50:56.469Z,1.92
2022-10-01T05:56:03.052Z,1.75
2022-10-01T06:01:06.101Z,1.48
2022-10-01T06:06:10.431Z,1.33
2022-10-01T06:11:13.397Z,1.33
2022-10-01T06:16:16.581Z,1.23
2022-10-01T06:21:21.536Z,1.00
2022-10-01T06:26:24.584Z,0.95
2022-10-01T06:31:27.671Z,1.20
2022-10-01T06:36:32.044Z,1.38
2022-10-01T06:41:35.155Z,1.00
2022-10-01T06:46:38.502Z,2.35
2022-10-01T06:52:00.015Z,1.52
2022-10-01T06:57:02.971Z,1.25
2022-10-01T07:02:06.599Z,1.27
2022-10-01T07:07:10.975Z,1.20
2022-10-01T07:12:13.918Z,1.17
2022-10-01T07:17:17.195Z,3.00
2022-10-01T07:22:24.134Z,8.20
2022-10-01T07:27:27.243Z,3.75
2022-10-01T07:32:31.640Z,3.95
2022-10-01T07:37:35.949Z,3.13
2022-10-01T07:42:39.378Z,2.10
2022-10-01T07:47:42.364Z,2.88
2022-10-01T07:52:46.692Z,2.65
2022-10-01T07:57:53.425Z,5.10
2022-10-01T08:02:57.453Z,9.45
2022-10-01T08:08:03.536Z,4.13
2022-10-01T08:13:14.851Z,6.00
2022-10-01T08:18:18.115Z,4.47
2022-10-01T08:23:22.696Z,5.10
2022-10-01T08:28:25.753Z,10.25
2022-10-01T08:33:28.701Z,4.20
2022-10-01T08:38:32.991Z,7.13
2022-10-01T08:43:38.930Z,3.90
2022-10-01T08:48:56.895Z,6.25
2022-10-01T08:54:11.318Z,5.15
2022-10-01T08:59:27.476Z,4.30
2022-10-01T09:04:30.802Z,7.60
2022-10-01T09:09:45.929Z,7.07
2022-10-01T09:15:15.428Z,9.02
2022-10-01T09:20:26.815Z,9.25
2022-10-01T09:25:31.967Z,9.43
2022-10-01T09:30:37.636Z,8.00
2022-10-01T09:35:45.238Z,5.05
2022-10-01T09:40:54.895Z,4.68
2022-10-01T09:45:58.468Z,4.82
2022-10-01T09:51:07.936Z,9.75
2022-10-01T09:56:18.296Z,7.10
2022-10-01T10:01:28.014Z,5.72
2022-10-01T10:06:32.676Z,7.95
2022-10-01T10:11:37.473Z,10.25
2022-10-01T10:16:47.284Z,7.20
2022-10-01T10:21:52.218Z,4.65
2022-10-01T10:27:00.034Z,6.40
2022-10-01T10:32:07.781Z,5.85
2022-10-01T10:37:15.847Z,6.03
2022-10-01T10:42:22.257Z,5.35
2022-10-01T10:47:28.405Z,3.30
2022-10-01T10:52:33.844Z,1.77
2022-10-01T10:57:38.174Z,3.63
2022-10-01T11:02:43.348Z,6.40
2022-10-01T11:07:47.671Z,3.53
2022-10-01T11:13:18.568Z,6.50
2022-10-01T11:18:43.741Z,5.38
2022-10-01T11:24:10.309Z,4.43
2022-10-01T11:29:27.026Z,6.10
2022-10-01T11:34:49.448Z,26.70
2022-10-01T11:39:56.160Z,15.70
2022-10-01T11:45:06.963Z,13.75
2022-10-01T11:50:18.535Z,8.13
2022-10-01T11:55:42.659Z,7.47
2022-10-01T12:00:58.114Z,13.40
2022-10-01T12:06:01.998Z,10.93
2022-10-01T12:11:16.160Z,14.40
2022-10-01T12:16:29.869Z,13.25
2022-10-01T12:21:38.893Z,12.63
2022-10-01T12:26:53.982Z,10.10
2022-10-01T12:32:05.348Z,12.32
2022-10-01T12:37:22.355Z,12.00
2022-10-01T12:42:40.931Z,14.32
2022-10-01T12:47:51.679Z,10.93
2022-10-01T12:53:07.787Z,14.48
2022-10-01T12:58:20.747Z,7.25
2022-10-01T13:03:41.263Z,7.38
2022-10-01T13:08:55.367Z,8.15
2022-10-01T13:14:00.898Z,9.27
2022-10-01T13:19:10.570Z,6.10
2022-10-01T13:24:17.723Z,8.15
2022-10-01T13:29:34.090Z,6.50
2022-10-01T13:34:41.979Z,6.68
2022-10-01T13:39:45.843Z,7.10
2022-10-01T13:44:54.380Z,7.10
2022-10-01T13:50:03.639Z,5.18
2022-10-01T13:55:07.093Z,7.47
2022-10-01T14:00:23.936Z,5.68
2022-10-01T14:05:34.848Z,9.32
2022-10-01T14:11:02.503Z,10.32
2022-10-01T14:16:05.774Z,9.60
2022-10-01T14:21:23.513Z,6.95
2022-10-01T14:26:35.386Z,9.00
2022-10-01T14:31:51.325Z,6.68
2022-10-01T14:36:56.967Z,6.57
2022-10-01T14:42:00.244Z,3.33
2022-10-01T14:47:14.408Z,6.57
2022-10-01T14:52:23.128Z,2.67
2022-10-01T14:57:31.304Z,4.75
2022-10-01T15:02:34.371Z,10.35
2022-10-01T15:07:38.723Z,5.90
2022-10-01T15:12:42.452Z,6.55
2022-10-01T15:17:45.511Z,6.43
2022-10-01T15:22:57.866Z,3.95
2022-10-01T15:28:15.154Z,7.68
2022-10-01T15:33:27.818Z,6.00
2022-10-01T15:38:34.221Z,4.22
2022-10-01T15:43:39.173Z,7.85
2022-10-01T15:48:42.225Z,5.82
2022-10-01T15:53:46.901Z,12.70
2022-10-01T15:58:53.351Z,17.67
2022-10-01T16:04:01.907Z,12.30
2022-10-01T16:09:12.920Z,8.30
2022-10-01T16:14:29.343Z,5.78
2022-10-01T16:19:32.844Z,9.10
2022-10-01T16:24:43.549Z,5.93
2022-10-01T16:29:55.723Z,7.07
2022-10-01T16:35:20.755Z,3.40
2022-10-01T16:40:27.119Z,4.68
2022-10-01T16:45:35.932Z,5.45
2022-10-01T16:50:39.009Z,5.15
2022-10-01T16:55:44.384Z,3.83
2022-10-01T17:00:47.559Z,6.20
2022-10-01T17:05:50.631Z,4.45
2022-10-01T17:10:58.730Z,7.40
2022-10-01T17:16:04.721Z,3.97
2022-10-01T17:21:09.895Z,4.40
2022-10-01T17:26:14.311Z,4.30
2022-10-01T17:31:18.233Z,4.10
2022-10-01T17:36:21.367Z,4.68
2022-10-01T17:41:25.958Z,3.90
2022-10-01T17:46:30.910Z,3.45
2022-10-01T17:51:33.954Z,2.55
2022-10-01T17:56:38.877Z,3.30
2022-10-01T18:01:41.928Z,6.15
2022-10-01T18:06:44.932Z,7.63
2022-10-01T18:11:49.690Z,4.63
2022-10-01T18:16:52.820Z,3.47
2022-10-01T18:21:55.932Z,6.90
2022-10-01T18:27:00.359Z,3.88
2022-10-01T18:32:07.896Z,5.93
2022-10-01T18:37:33.896Z,3.10
2022-10-01T18:42:47.169Z,4.05
2022-10-01T18:48:04.064Z,7.57
2022-10-01T18:53:20.194Z,5.72
2022-10-01T18:58:50.512Z,3.67
2022-10-01T19:04:14.703Z,4.43
2022-10-01T19:09:31.026Z,1.98
2022-10-01T19:14:57.006Z,3.50
2022-10-01T19:20:12.175Z,4.93
2022-10-01T19:25:23.262Z,6.68
2022-10-01T19:30:34.217Z,4.78
2022-10-01T19:35:39.917Z,3.40
2022-10-01T19:40:48.159Z,4.43
2022-10-01T19:45:57.964Z,3.88
2022-10-01T19:51:10.220Z,7.65
2022-10-01T19:56:17.393Z,3.10
2022-10-01T20:01:25.040Z,1.25
2022-10-01T20:06:32.606Z,2.50
2022-10-01T20:11:44.188Z,2.50
2022-10-01T20:16:52.767Z,1.85
2022-10-01T20:22:02.152Z,2.30
2022-10-01T20:27:14.127Z,2.55
2022-10-01T20:32:23.415Z,3.75
2022-10-01T20:37:41.448Z,1.65
2022-10-01T20:42:49.975Z,10.00
2022-10-01T20:47:58.033Z,3.67
2022-10-01T20:53:18.231Z,1.92
2022-10-01T20:58:26.039Z,3.08
2022-10-01T21:03:36.140Z,2.13
2022-10-01T21:08:46.127Z,2.53
2022-10-01T21:13:56.646Z,2.78
2022-10-01T21:19:14.113Z,2.08
2022-10-01T21:24:30.396Z,3.00
2022-10-01T21:29:56.056Z,2.33
2022-10-01T21:35:13.500Z,1.65
2022-10-01T21:40:25.263Z,4.45
2022-10-01T21:45:39.173Z,2.15
2022-10-01T21:50:52.969Z,4.65
2022-10-01T21:56:11.330Z,2.67
2022-10-01T22:01:19.054Z,1.70
2022-10-01T22:06:31.991Z,2.15
2022-10-01T22:11:40.013Z,3.55
2022-10-01T22:16:50.784Z,2.83
2022-10-01T22:22:00.602Z,3.35
2022-10-01T22:27:17.032Z,1.58
2022-10-01T22:32:23.320Z,1.52
2022-10-01T22:37:34.605Z,1.92
2022-10-01T22:42:43.516Z,1.70
2022-10-01T22:48:04.586Z,1.42
2022-10-01T22:53:35.704Z,1.67
2022-10-01T22:58:50.929Z,1.33
2022-10-01T23:04:10.569Z,1.05
2022-10-01T23:09:20.522Z,0.98
2022-10-01T23:14:40.142Z,1.25
2022-10-01T23:19:53.480Z,0.70
2022-10-01T23:25:17.214Z,0.60
2022-10-01T23:30:21.770Z,0.75
2022-10-01T23:35:33.136Z,1.08
2022-10-01T23:40:42.047Z,1.55
2022-10-01T23:45:49.364Z,2.05
2022-10-01T23:50:59.007Z,0.60
2022-10-01T23:56:24.612Z,0.98
